createdAt,value
2023-01-23T00:01:40.998Z,0.98
2023-01-23T00:04:13.151Z,0.35
2023-01-23T00:06:43.492Z,1.42
2023-01-23T00:11:42.049Z,1.13
2023-01-23T00:14:10.856Z,0.55
2023-01-23T00:16:40.937Z,1.15
2023-01-23T00:19:11.726Z,0.35
2023-01-23T00:21:39.489Z,0.75
2023-01-23T00:24:07.392Z,0.60
2023-01-23T00:26:40.504Z,1.08
2023-01-23T00:29:10.552Z,0.95
2023-01-23T00:31:39.555Z,1.10
2023-01-23T00:34:11.352Z,0.47
2023-01-23T00:36:43.412Z,1.25
2023-01-23T00:39:17.843Z,0.30
2023-01-23T00:41:49.496Z,1.77
2023-01-23T00:44:17.527Z,0.40
2023-01-23T00:46:47.803Z,1.15
2023-01-23T00:51:45.797Z,0.82
2023-01-23T00:54:13.522Z,0.40
2023-01-23T00:56:41.186Z,0.88
2023-01-23T00:59:08.850Z,0.38
2023-01-23T01:01:36.222Z,0.68
2023-01-23T01:04:03.868Z,0.35
2023-01-23T01:06:31.569Z,0.65
2023-01-23T01:09:01.870Z,0.20
2023-01-23T01:13:57.626Z,0.40
2023-01-23T01:16:25.385Z,1.15
2023-01-23T01:18:52.829Z,0.52
2023-01-23T01:21:22.948Z,0.65
2023-01-23T01:23:53.953Z,0.40
2023-01-23T01:26:26.308Z,1.08
2023-01-23T01:28:53.874Z,0.60
2023-01-23T01:31:21.716Z,0.68
2023-01-23T01:33:51.826Z,0.60
2023-01-23T01:36:24.020Z,0.95
2023-01-23T01:38:54.102Z,0.40
2023-01-23T01:41:23.742Z,2.05
2023-01-23T01:43:53.644Z,0.57
2023-01-23T01:46:26.562Z,1.20
2023-01-23T01:49:11.924Z,0.40
2023-01-23T01:51:52.855Z,0.88
2023-01-23T01:54:28.820Z,0.70
2023-01-23T01:57:01.036Z,0.63
2023-01-23T01:59:30.415Z,0.50
2023-01-23T02:02:05.286Z,0.82
2023-01-23T02:04:38.993Z,0.73
2023-01-23T02:07:11.660Z,0.73
2023-01-23T02:09:39.409Z,0.60
2023-01-23T02:12:08.076Z,0.45
2023-01-23T02:14:35.726Z,1.00
2023-01-23T02:17:03.816Z,0.40
2023-01-23T02:19:59.425Z,0.73
2023-01-23T02:22:55.963Z,0.50
2023-01-23T02:25:44.364Z,0.50
2023-01-23T02:28:15.924Z,1.00
2023-01-23T02:30:48.196Z,0.80
2023-01-23T02:33:22.396Z,0.63
2023-01-23T02:35:50.777Z,0.47
2023-01-23T02:38:22.795Z,0.68
2023-01-23T02:40:53.672Z,0.30
2023-01-23T02:43:23.605Z,0.68
2023-01-23T02:45:55.018Z,0.38
2023-01-23T02:48:23.381Z,0.43
2023-01-23T02:50:54.165Z,0.40
2023-01-23T02:53:21.767Z,0.50
2023-01-23T02:55:49.177Z,0.40
2023-01-23T02:58:35.054Z,0.30
2023-01-23T03:01:02.809Z,0.50
2023-01-23T03:03:30.782Z,0.80
2023-01-23T03:06:03.526Z,0.50
2023-01-23T03:08:34.280Z,0.60
2023-01-23T03:11:03.328Z,0.22
2023-01-23T03:13:33.391Z,0.70
2023-01-23T03:16:01.275Z,0.45
2023-01-23T03:18:30.937Z,0.60
2023-01-23T03:21:06.540Z,0.73
2023-01-23T03:23:34.236Z,0.90
2023-01-23T03:26:01.586Z,0.68
2023-01-23T03:28:48.363Z,0.50
2023-01-23T03:31:19.061Z,0.82
2023-01-23T03:33:49.256Z,0.93
2023-01-23T03:36:16.895Z,0.77
2023-01-23T03:39:04.364Z,0.63
2023-01-23T03:41:31.912Z,1.13
2023-01-23T03:44:05.415Z,0.45
2023-01-23T03:46:33.059Z,1.15
2023-01-23T03:49:00.632Z,0.55
2023-01-23T03:51:30.798Z,1.58
2023-01-23T03:54:01.357Z,0.65
2023-01-23T03:56:29.117Z,1.05
2023-01-23T03:58:56.776Z,0.60
2023-01-23T04:01:24.436Z,1.10
2023-01-23T04:03:51.789Z,0.65
2023-01-23T04:06:19.865Z,9.27
2023-01-23T04:08:47.368Z,2.83
2023-01-23T04:11:15.599Z,4.47
2023-01-23T04:13:43.403Z,1.08
2023-01-23T04:16:10.962Z,2.38
2023-01-23T04:18:38.707Z,1.50
2023-01-23T04:21:06.586Z,4.82
2023-01-23T04:23:37.419Z,2.08
2023-01-23T04:26:05.142Z,4.40
2023-01-23T04:28:35.870Z,19.92
2023-01-23T04:31:06.395Z,13.70
2023-01-23T04:33:34.026Z,7.03
2023-01-23T04:36:08.676Z,8.45
2023-01-23T04:38:41.382Z,7.22
2023-01-23T04:41:09.039Z,4.97
2023-01-23T04:43:36.652Z,4.68
2023-01-23T04:46:06.186Z,16.05
2023-01-23T04:48:33.946Z,11.30
2023-01-23T04:51:01.518Z,6.93
2023-01-23T04:53:31.220Z,29.20
2023-01-23T04:56:04.875Z,2.80
2023-01-23T04:58:32.609Z,5.20
2023-01-23T05:01:07.169Z,3.05
2023-01-23T05:03:35.275Z,17.33
2023-01-23T05:06:02.797Z,12.25
2023-01-23T05:08:33.505Z,4.55
2023-01-23T05:11:01.815Z,16.08
2023-01-23T05:13:29.462Z,28.70
2023-01-23T05:15:59.516Z,36.78
2023-01-23T05:18:27.191Z,45.72
2023-01-23T05:20:54.949Z,40.30
2023-01-23T05:23:24.876Z,37.70
2023-01-23T05:25:54.724Z,48.17
2023-01-23T05:28:22.325Z,49.03
2023-01-23T05:30:49.678Z,47.00
2023-01-23T05:33:19.613Z,45.35
2023-01-23T05:35:47.108Z,43.75
2023-01-23T05:38:15.061Z,36.80
2023-01-23T05:40:45.751Z,38.40
2023-01-23T05:43:16.330Z,44.25
2023-01-23T05:45:49.697Z,29.42
2023-01-23T05:48:19.392Z,22.30
2023-01-23T05:50:46.821Z,34.40
2023-01-23T05:53:14.471Z,17.52
2023-01-23T05:55:42.317Z,28.10
2023-01-23T05:58:09.765Z,29.40
2023-01-23T06:00:37.121Z,7.93
2023-01-23T06:03:04.965Z,20.05
2023-01-23T06:05:34.647Z,27.63
2023-01-23T06:08:04.672Z,42.03
2023-01-23T06:10:36.402Z,51.97
2023-01-23T06:13:04.383Z,46.35
2023-01-23T06:15:34.620Z,35.30
2023-01-23T06:18:05.387Z,43.88
2023-01-23T06:20:37.482Z,42.15
2023-01-23T06:23:04.993Z,36.58
2023-01-23T06:25:32.440Z,43.63
2023-01-23T06:27:59.911Z,40.13
2023-01-23T06:30:27.371Z,37.63
2023-01-23T06:32:54.808Z,44.60
2023-01-23T06:35:22.900Z,57.30
2023-01-23T06:37:52.966Z,49.30
2023-01-23T06:40:23.763Z,54.70
2023-01-23T06:42:54.568Z,55.78
2023-01-23T06:45:24.832Z,52.50
2023-01-23T06:50:20.974Z,60.58
2023-01-23T06:52:48.657Z,58.58
2023-01-23T06:55:17.449Z,51.83
2023-01-23T06:57:44.908Z,55.53
2023-01-23T07:00:12.998Z,53.40
2023-01-23T07:02:45.444Z,50.25
2023-01-23T07:05:15.330Z,61.47
2023-01-23T07:07:45.690Z,51.92
2023-01-23T07:12:46.795Z,60.72
2023-01-23T07:15:14.418Z,55.60
2023-01-23T07:17:44.270Z,69.68
2023-01-23T07:20:15.806Z,62.78
2023-01-23T07:22:43.424Z,59.80
2023-01-23T07:25:11.197Z,60.92
2023-01-23T07:27:38.463Z,71.80
2023-01-23T07:30:06.014Z,56.20
2023-01-23T07:32:34.695Z,63.55
2023-01-23T07:35:02.572Z,76.05
2023-01-23T07:37:30.192Z,70.68
2023-01-23T07:40:00.074Z,63.40
2023-01-23T07:42:27.600Z,78.15
2023-01-23T07:44:57.723Z,72.68
2023-01-23T07:47:27.268Z,76.32
2023-01-23T07:49:54.581Z,82.00
2023-01-23T07:52:24.694Z,33.55
2023-01-23T07:54:55.358Z,62.85
2023-01-23T07:57:26.043Z,84.35
2023-01-23T07:59:53.807Z,85.00
2023-01-23T08:02:21.328Z,106.70
2023-01-23T08:05:04.320Z,81.38
2023-01-23T08:07:35.205Z,44.53
2023-01-23T08:10:03.343Z,26.63
2023-01-23T08:12:31.322Z,12.45
2023-01-23T08:14:58.844Z,10.95
2023-01-23T08:17:26.306Z,15.50
2023-01-23T08:19:53.624Z,32.70
2023-01-23T08:22:21.287Z,8.77
2023-01-23T08:24:48.748Z,49.10
2023-01-23T08:27:16.321Z,52.55
2023-01-23T08:29:43.931Z,64.97
2023-01-23T08:32:16.359Z,52.00
2023-01-23T08:34:46.615Z,69.53
2023-01-23T08:37:18.227Z,67.18
2023-01-23T08:39:45.774Z,54.00
2023-01-23T08:42:16.455Z,58.33
2023-01-23T08:44:43.959Z,88.97
2023-01-23T08:47:11.798Z,53.60
2023-01-23T08:49:39.531Z,55.83
2023-01-23T08:52:08.114Z,73.88
2023-01-23T08:54:38.535Z,77.53
2023-01-23T08:57:08.869Z,77.90
2023-01-23T08:59:36.269Z,79.65
2023-01-23T09:02:04.213Z,74.38
2023-01-23T09:04:35.238Z,79.55
2023-01-23T09:07:06.758Z,38.10
2023-01-23T09:09:37.937Z,67.32
2023-01-23T09:12:08.783Z,85.50
2023-01-23T09:14:38.452Z,77.20
2023-01-23T09:17:07.397Z,50.63
2023-01-23T09:19:35.377Z,10.45
2023-01-23T09:22:05.815Z,7.30
2023-01-23T09:24:37.981Z,7.45
2023-01-23T09:27:05.629Z,4.32
2023-01-23T09:29:33.251Z,7.40
2023-01-23T09:32:04.526Z,8.13
2023-01-23T09:34:32.232Z,11.00
2023-01-23T09:37:01.857Z,22.33
2023-01-23T09:39:29.587Z,11.82
2023-01-23T09:41:57.080Z,24.08
2023-01-23T09:44:43.246Z,35.03
2023-01-23T09:47:36.880Z,10.23
2023-01-23T09:50:13.900Z,13.60
2023-01-23T09:53:01.850Z,12.43
2023-01-23T09:55:39.232Z,8.18
2023-01-23T09:58:23.159Z,15.50
2023-01-23T10:00:59.806Z,9.05
2023-01-23T10:03:31.802Z,7.78
2023-01-23T10:06:25.838Z,23.55
2023-01-23T10:09:26.631Z,24.10
2023-01-23T10:12:07.081Z,7.60
2023-01-23T10:15:13.985Z,12.02
2023-01-23T10:17:59.430Z,11.50
2023-01-23T10:20:37.454Z,8.57
2023-01-23T10:23:32.748Z,10.38
2023-01-23T10:26:03.989Z,8.18
2023-01-23T10:28:39.606Z,14.27
2023-01-23T10:31:23.081Z,9.95
2023-01-23T10:34:09.260Z,8.85
2023-01-23T10:36:54.730Z,13.75
2023-01-23T10:39:31.213Z,23.38
2023-01-23T10:42:02.313Z,25.70
2023-01-23T10:44:31.067Z,38.97
2023-01-23T10:47:13.466Z,72.60
2023-01-23T10:49:48.965Z,84.32
2023-01-23T10:52:36.515Z,104.10
2023-01-23T10:55:21.005Z,85.28
2023-01-23T10:57:53.266Z,38.25
2023-01-23T11:00:37.545Z,13.93
2023-01-23T11:03:22.642Z,13.50
2023-01-23T11:05:56.730Z,7.93
2023-01-23T11:08:33.415Z,8.23
2023-01-23T11:11:17.562Z,5.35
2023-01-23T11:13:46.857Z,8.52
2023-01-23T11:16:23.001Z,9.02
2023-01-23T11:18:54.520Z,7.35
2023-01-23T11:21:28.260Z,9.00
2023-01-23T11:24:24.929Z,11.90
2023-01-23T11:27:02.257Z,11.38
2023-01-23T11:29:31.558Z,12.25
2023-01-23T11:32:09.842Z,21.92
2023-01-23T11:34:50.882Z,27.77
2023-01-23T11:37:23.364Z,44.00
2023-01-23T11:40:07.796Z,47.05
2023-01-23T11:42:36.845Z,48.47
2023-01-23T11:45:17.773Z,40.88
2023-01-23T11:47:59.101Z,68.50
2023-01-23T11:51:11.183Z,83.72
2023-01-23T11:53:44.548Z,87.45
2023-01-23T11:56:27.009Z,7.93
2023-01-23T11:59:28.735Z,45.70
2023-01-23T12:02:05.005Z,80.50
2023-01-23T12:04:46.231Z,77.28
2023-01-23T12:07:25.435Z,39.03
2023-01-23T12:10:02.570Z,24.83
2023-01-23T12:12:49.176Z,47.45
2023-01-23T12:15:28.242Z,45.78
2023-01-23T12:18:05.694Z,56.83
2023-01-23T12:20:47.446Z,68.28
2023-01-23T12:23:26.761Z,67.25
2023-01-23T12:26:19.919Z,53.92
2023-01-23T12:29:31.386Z,59.95
2023-01-23T12:32:33.534Z,90.38
2023-01-23T12:35:00.889Z,37.05
2023-01-23T12:37:41.941Z,64.20
2023-01-23T12:40:38.776Z,59.65
2023-01-23T12:43:25.628Z,61.55
2023-01-23T12:46:06.038Z,83.15
2023-01-23T12:48:52.506Z,115.97
2023-01-23T12:51:31.348Z,64.07
2023-01-23T12:54:13.398Z,10.25
2023-01-23T12:56:41.959Z,15.20
2023-01-23T12:59:26.867Z,15.02
2023-01-23T13:02:03.158Z,12.75
2023-01-23T13:04:42.961Z,19.30
2023-01-23T13:07:43.185Z,24.55
2023-01-23T13:10:57.091Z,47.70
2023-01-23T13:13:24.856Z,38.28
2023-01-23T13:16:13.907Z,6.00
2023-01-23T13:19:19.473Z,8.60
2023-01-23T13:22:29.351Z,7.75
2023-01-23T13:25:10.591Z,6.03
2023-01-23T13:27:50.442Z,10.00
2023-01-23T13:30:26.393Z,6.25
2023-01-23T13:32:58.543Z,8.13
2023-01-23T13:35:56.186Z,9.70
2023-01-23T13:38:26.441Z,6.50
2023-01-23T13:41:30.332Z,7.18
2023-01-23T13:44:18.078Z,7.75
2023-01-23T14:22:08.093Z,56.08
2023-01-23T14:24:47.916Z,60.80
2023-01-23T14:27:29.401Z,68.75
2023-01-23T14:30:02.666Z,39.53
2023-01-23T14:32:32.143Z,72.85
2023-01-23T14:35:06.587Z,43.90
2023-01-23T14:37:36.456Z,33.92
2023-01-23T14:40:11.930Z,55.47
2023-01-23T14:42:44.623Z,58.72
2023-01-23T14:45:17.700Z,52.72
2023-01-23T14:47:53.429Z,38.65
2023-01-23T14:50:26.472Z,24.52
2023-01-23T14:53:30.691Z,53.22
2023-01-23T14:56:00.958Z,39.95
2023-01-23T15:00:58.072Z,57.40
2023-01-23T15:03:45.004Z,63.60
2023-01-23T15:06:15.991Z,31.17
2023-01-23T15:08:44.269Z,28.85
2023-01-23T15:11:13.325Z,65.03
2023-01-23T15:13:50.572Z,18.85
2023-01-23T15:16:23.655Z,4.65
2023-01-23T15:19:12.028Z,3.75
2023-01-23T15:21:41.837Z,6.28
2023-01-23T15:24:15.846Z,4.50
2023-01-23T15:26:44.900Z,8.30
2023-01-23T15:29:12.775Z,6.00
2023-01-23T15:31:41.633Z,4.75
2023-01-23T15:34:22.234Z,5.43
2023-01-23T15:36:54.825Z,4.78
2023-01-23T15:39:30.734Z,6.82
2023-01-23T15:42:03.205Z,39.65
2023-01-23T15:44:32.495Z,66.82
2023-01-23T15:47:01.192Z,72.15
2023-01-23T15:49:29.497Z,99.40
2023-01-23T15:51:58.800Z,49.88
2023-01-23T15:54:37.764Z,52.20
2023-01-23T15:57:08.179Z,76.60
2023-01-23T15:59:38.867Z,21.92
2023-01-23T16:02:29.999Z,37.53
2023-01-23T16:05:01.274Z,81.15
2023-01-23T16:07:40.939Z,32.03
2023-01-23T16:10:22.852Z,21.08
2023-01-23T16:12:53.024Z,13.80
2023-01-23T16:15:23.647Z,8.70
2023-01-23T16:17:53.476Z,24.73
2023-01-23T16:20:25.480Z,38.47
2023-01-23T16:22:56.624Z,16.63
2023-01-23T16:25:43.565Z,55.83
2023-01-23T16:28:15.517Z,61.08
2023-01-23T16:30:45.722Z,51.72
2023-01-23T16:33:14.076Z,49.95
2023-01-23T16:35:41.944Z,41.38
2023-01-23T16:38:22.767Z,77.38
2023-01-23T16:40:53.296Z,32.95
2023-01-23T16:43:22.118Z,51.22
2023-01-23T16:45:53.713Z,94.70
2023-01-23T16:48:28.277Z,49.17
2023-01-23T16:51:02.358Z,71.53
2023-01-23T16:53:43.910Z,63.50
2023-01-23T16:56:38.559Z,66.07
2023-01-23T16:59:16.498Z,66.10
2023-01-23T17:01:46.840Z,48.13
2023-01-23T17:06:52.691Z,64.65
2023-01-23T17:09:20.578Z,66.47
2023-01-23T17:11:57.953Z,53.08
2023-01-23T17:14:27.612Z,45.25
2023-01-23T17:16:58.078Z,37.30
2023-01-23T17:19:32.561Z,5.03
2023-01-23T17:22:02.872Z,9.02
2023-01-23T17:26:59.228Z,17.63
2023-01-23T17:29:27.548Z,19.88
2023-01-23T17:31:55.708Z,2.75
2023-01-23T17:34:25.435Z,4.30
2023-01-23T17:36:54.454Z,1.80
2023-01-23T17:39:22.203Z,2.85
2023-01-23T17:41:51.455Z,1.70
2023-01-23T17:44:19.478Z,3.70
2023-01-23T17:46:47.825Z,3.90
2023-01-23T17:49:43.141Z,16.77
2023-01-23T17:52:12.531Z,62.92
2023-01-23T17:54:40.448Z,1.20
2023-01-23T17:57:08.222Z,14.20
2023-01-23T17:59:36.111Z,2.38
2023-01-23T18:02:03.941Z,1.48
2023-01-23T18:04:32.058Z,1.90
2023-01-23T18:06:59.891Z,1.17
2023-01-23T18:09:27.698Z,1.10
2023-01-23T18:11:55.918Z,1.52
2023-01-23T18:14:26.174Z,1.48
2023-01-23T18:16:54.352Z,1.25
2023-01-23T18:19:23.048Z,2.47
2023-01-23T18:21:55.811Z,2.28
2023-01-23T18:24:32.261Z,3.40
2023-01-23T18:30:16.082Z,1.77
2023-01-23T18:33:08.237Z,1.67
2023-01-23T18:35:54.285Z,34.05
2023-01-23T18:38:49.408Z,1.33
2023-01-23T18:44:19.124Z,2.28
2023-01-23T18:46:47.596Z,1.67
2023-01-23T18:49:31.791Z,9.15
2023-01-23T18:52:16.602Z,34.67
2023-01-23T18:54:50.294Z,40.58
2023-01-23T18:57:40.908Z,68.65
2023-01-23T19:00:34.971Z,47.17
2023-01-23T19:03:15.557Z,0.90
2023-01-23T19:05:43.934Z,8.68
2023-01-23T19:08:38.087Z,2.15
2023-01-23T19:11:22.540Z,0.85
2023-01-23T19:14:14.394Z,1.63
2023-01-23T19:16:47.930Z,2.35
2023-01-23T19:19:30.700Z,0.70
2023-01-23T19:21:59.366Z,0.70
2023-01-23T19:24:28.279Z,1.15
2023-01-23T19:26:56.256Z,0.80
2023-01-23T19:29:24.369Z,1.20
2023-01-23T19:32:05.107Z,1.00
2023-01-23T19:34:34.262Z,0.90
2023-01-23T19:37:02.453Z,0.90
2023-01-23T19:39:30.878Z,1.10
2023-01-23T19:41:59.626Z,1.17
2023-01-23T19:44:30.401Z,1.75
2023-01-23T19:46:58.344Z,1.00
2023-01-23T19:49:26.128Z,1.35
2023-01-23T19:51:54.426Z,1.10
2023-01-23T19:54:24.195Z,0.75
2023-01-23T19:56:52.331Z,0.90
2023-01-23T19:59:20.981Z,0.90
2023-01-23T20:01:51.312Z,1.30
2023-01-23T20:06:54.764Z,1.30
2023-01-23T20:09:22.940Z,0.90
2023-01-23T20:11:52.314Z,0.68
2023-01-23T20:14:22.275Z,0.80
2023-01-23T20:16:50.286Z,1.80
2023-01-23T20:19:19.558Z,0.88
2023-01-23T20:21:48.629Z,1.92
2023-01-23T20:24:17.123Z,1.00
2023-01-23T20:26:47.174Z,1.60
2023-01-23T20:29:14.948Z,0.93
2023-01-23T20:31:44.168Z,1.27
2023-01-23T20:34:12.087Z,0.80
2023-01-23T20:36:39.944Z,0.82
2023-01-23T20:39:07.977Z,0.93
2023-01-23T20:41:36.841Z,2.80
2023-01-23T20:44:05.978Z,0.95
2023-01-23T20:46:33.858Z,0.93
2023-01-23T20:49:02.268Z,0.70
2023-01-23T20:51:30.772Z,1.15
2023-01-23T20:53:59.432Z,0.70
2023-01-23T20:56:28.515Z,1.17
2023-01-23T20:59:16.116Z,0.90
2023-01-23T21:02:03.675Z,1.20
2023-01-23T21:04:34.063Z,0.60
2023-01-23T21:07:03.462Z,0.93
2023-01-23T21:09:31.470Z,0.93
2023-01-23T21:11:59.785Z,0.75
2023-01-23T21:14:28.791Z,0.85
2023-01-23T21:16:57.267Z,0.90
2023-01-23T21:19:25.236Z,0.77
2023-01-23T21:21:53.514Z,0.70
2023-01-23T21:24:22.362Z,0.80
2023-01-23T21:26:50.552Z,0.80
2023-01-23T21:29:18.525Z,0.80
2023-01-23T21:31:46.331Z,1.00
2023-01-23T21:34:15.290Z,1.17
2023-01-23T21:36:43.659Z,1.20
2023-01-23T21:39:14.392Z,0.55
2023-01-23T21:41:42.458Z,1.27
2023-01-23T21:44:13.812Z,0.63
2023-01-23T21:46:42.221Z,1.27
2023-01-23T21:49:10.413Z,0.75
2023-01-23T21:51:39.471Z,0.80
2023-01-23T21:54:07.171Z,1.05
2023-01-23T21:56:35.497Z,0.88
2023-01-23T21:59:03.236Z,0.68
2023-01-23T22:01:39.451Z,1.13
2023-01-23T22:04:13.125Z,0.70
2023-01-23T22:06:42.057Z,1.13
2023-01-23T22:09:10.470Z,0.50
2023-01-23T22:11:44.798Z,1.35
2023-01-23T22:14:14.003Z,0.68
2023-01-23T22:16:50.225Z,1.23
2023-01-23T22:19:24.201Z,0.55
2023-01-23T22:21:53.105Z,1.00
2023-01-23T22:24:21.048Z,0.75
2023-01-23T22:26:48.908Z,0.88
2023-01-23T22:29:16.472Z,1.00
2023-01-23T22:31:45.847Z,1.35
2023-01-23T22:34:13.654Z,0.70
2023-01-23T22:36:41.382Z,0.93
2023-01-23T22:39:09.325Z,0.70
2023-01-23T22:41:37.013Z,1.98
2023-01-23T22:44:04.924Z,0.50
2023-01-23T22:46:32.909Z,1.92
2023-01-23T22:49:00.816Z,0.90
2023-01-23T22:51:29.724Z,1.45
2023-01-23T22:53:58.394Z,1.00
2023-01-23T22:56:27.340Z,1.35
2023-01-23T22:58:55.343Z,0.95
2023-01-23T23:01:25.028Z,1.55
2023-01-23T23:03:52.919Z,0.55
2023-01-23T23:06:21.001Z,1.60
2023-01-23T23:08:49.184Z,1.38
2023-01-23T23:11:22.495Z,1.05
2023-01-23T23:13:50.317Z,1.08
2023-01-23T23:16:20.844Z,1.02
2023-01-23T23:18:50.759Z,1.02
2023-01-23T23:21:26.106Z,4.32
2023-01-23T23:23:59.632Z,18.33
2023-01-23T23:26:28.600Z,4.63
2023-01-23T23:28:56.511Z,7.75
2023-01-23T23:31:24.571Z,18.90
2023-01-23T23:33:52.608Z,21.40
2023-01-23T23:36:20.426Z,18.05
2023-01-23T23:38:49.194Z,7.68
2023-01-23T23:41:17.492Z,18.00
2023-01-23T23:43:45.420Z,0.80
2023-01-23T23:46:14.385Z,12.05
2023-01-23T23:48:43.713Z,25.42
2023-01-23T23:51:14.497Z,17.45
2023-01-23T23:53:45.251Z,16.75
2023-01-23T23:56:32.212Z,32.70
2023-01-23T23:58:59.994Z,22.05
